^^
Grace C. Lehan Memorial Weather Station Historical Data
Daily Summary for September 14, 2021 Units:  English    Metric   Both
Daily Weekly Monthly Yearly
  High: Low: Average:
Temperature: 78.3 °F 43.5 °F 65.4 °F
Dew Point: 49.4 °F 38.6 °F 42.4 °F
Humidity: 87% 25.2% 47%
Wind Speed: 8.3mph 0mph 0.2mph
Wind Gust: 20mph - -
Wind- - South
Pressure: 30.20 in 30.08 in -
Precipitation: 0.00 in    
 
 
Tabular Data for September 14, 2021
Time Temperature Dew Point Pressure Wind Wind Speed Wind Gust Humidity Rainfall Rate (Hourly) solar
00:04 52.5 °F 38.6 °F 30.14 in Calm     59% 0.00 in 0 W/m2
00:09 52.5 °F 38.9 °F 30.14 in Calm     59.7% 0.00 in 0 W/m2
00:14 52.4 °F 39 °F 30.14 in Calm     60.2% 0.00 in 0 W/m2
00:19 52.3 °F 39.6 °F 30.14 in Calm     61.8% 0.00 in 0 W/m2
00:24 52.2 °F 39.7 °F 30.14 in Calm     62.3% 0.00 in 0 W/m2
00:29 51.9 °F 39.9 °F 30.14 in Calm     63.4% 0.00 in 0 W/m2
00:34 51.7 °F 39.9 °F 30.14 in Calm     64% 0.00 in 0 W/m2
00:39 51.4 °F 40 °F 30.14 in Calm     64.9% 0.00 in 0 W/m2
00:44 51.2 °F 39.9 °F 30.15 in Calm     65% 0.00 in 0 W/m2
00:49 50.9 °F 39.6 °F 30.15 in Calm     65% 0.00 in 0 W/m2
00:54 50.7 °F 39.5 °F 30.15 in Calm     65.4% 0.00 in 0 W/m2
00:59 50.5 °F 39.6 °F 30.15 in NW 0.1 mph 2 mph 66.2% 0.00 in 0 W/m2
01:04 50.2 °F 39.9 °F 30.15 in NW 0.2 mph 2 mph 67.7% 0.00 in 0 W/m2
01:09 49.8 °F 40.1 °F 30.15 in Calm   2 mph 69% 0.00 in 0 W/m2
01:14 49.5 °F 39.7 °F 30.15 in Calm   2 mph 69% 0.00 in 0 W/m2
01:19 49.2 °F 39.6 °F 30.15 in Calm   2 mph 69.4% 0.00 in 0 W/m2
01:24 48.9 °F 39.8 °F 30.15 in NW 0.3 mph 3 mph 70.6% 0.00 in 0 W/m2
01:29 48.7 °F 39.8 °F 30.15 in Calm   3 mph 71% 0.00 in 0 W/m2
01:34 48.6 °F 39.8 °F 30.15 in Calm   3 mph 71.6% 0.00 in 0 W/m2
01:39 48.4 °F 39.8 °F 30.15 in Calm     72.2% 0.00 in 0 W/m2
01:44 48.1 °F 39.9 °F 30.14 in Calm     73% 0.00 in 0 W/m2
01:49 47.9 °F 39.8 °F 30.14 in Calm   1 mph 73.4% 0.00 in 0 W/m2
01:54 47.8 °F 40 °F 30.14 in Calm   1 mph 74% 0.00 in 0 W/m2
01:59 47.7 °F 39.9 °F 30.14 in Calm   1 mph 74% 0.00 in 0 W/m2
02:04 47.7 °F 39.8 °F 30.14 in Calm   1 mph 74% 0.00 in 0 W/m2
02:09 47.6 °F 39.7 °F 30.14 in Calm     74% 0.00 in 0 W/m2
02:14 47.5 °F 39.7 °F 30.14 in Calm     74% 0.00 in 0 W/m2
02:19 47.5 °F 40 °F 30.14 in Calm     75% 0.00 in 0 W/m2
02:24 47.4 °F 39.9 °F 30.14 in Calm     75% 0.00 in 0 W/m2
02:29 47.3 °F 39.8 °F 30.14 in Calm     75% 0.00 in 0 W/m2
02:34 47.3 °F 39.8 °F 30.14 in Calm     75% 0.00 in 0 W/m2
02:39 47.2 °F 39.9 °F 30.14 in Calm     75.8% 0.00 in 0 W/m2
02:44 47 °F 39.9 °F 30.14 in Calm     76% 0.00 in 0 W/m2
02:49 46.9 °F 39.7 °F 30.14 in Calm     76% 0.00 in 0 W/m2
02:54 46.7 °F 39.8 °F 30.14 in Calm     76.5% 0.00 in 0 W/m2
02:59 46.6 °F 39.8 °F 30.14 in Calm     77% 0.00 in 0 W/m2
03:04 46.4 °F 39.7 °F 30.14 in Calm     77.3% 0.00 in 0 W/m2
03:09 46.3 °F 39.8 °F 30.14 in Calm     78% 0.00 in 0 W/m2
03:14 46.1 °F 39.6 °F 30.14 in Calm     78% 0.00 in 0 W/m2
03:17 46 °F 39.6 °F 30.15 in Calm     78.1% 0.00 in 0 W/m2
03:30 45.6 °F 39.5 °F 30.15 in Calm     79% 0.00 in 0 W/m2
04:04 44.9 °F 39.7 °F 30.15 in Calm     82% 0.00 in 0 W/m2
04:09 44.8 °F 39.7 °F 30.15 in Calm     82% 0.00 in 0 W/m2
04:14 44.7 °F 39.5 °F 30.15 in Calm     82% 0.00 in 0 W/m2
04:19 44.6 °F 39.4 °F 30.15 in Calm     82% 0.00 in 0 W/m2
04:24 44.5 °F 39.4 °F 30.15 in Calm     82.3% 0.00 in 0 W/m2
04:29 44.4 °F 39.6 °F 30.15 in Calm     83% 0.00 in 0 W/m2
04:34 44.3 °F 39.6 °F 30.15 in Calm     83.2% 0.00 in 0 W/m2
04:39 44.3 °F 39.7 °F 30.16 in Calm     84% 0.00 in 0 W/m2
04:44 44.2 °F 39.9 °F 30.16 in Calm     85% 0.00 in 0 W/m2
04:49 44.1 °F 39.9 °F 30.16 in Calm     85% 0.00 in 0 W/m2
04:54 44.1 °F 40.1 °F 30.16 in Calm     85.6% 0.00 in 0 W/m2
04:59 44.1 °F 40.2 °F 30.16 in Calm     86% 0.00 in 0 W/m2
05:00 44.1 °F 40.2 °F 30.16 in Calm     86% 0.00 in 0 W/m2
05:30 43.9 °F 39.7 °F 30.16 in Calm     85% 0.00 in 0 W/m2
06:00 43.5 °F 39.6 °F 30.17 in Calm     86% 0.00 in 9 W/m2
06:30 44.1 °F 40.5 °F 30.18 in Calm     87% 0.00 in 34 W/m2
07:00 48.4 °F 43.2 °F 30.19 in Calm     82% 0.00 in 130 W/m2
07:30 53.6 °F 44.8 °F 30.19 in Calm     72% 0.00 in 282 W/m2
08:04 57.3 °F 44.7 °F 30.20 in Calm     62.5% 0.00 in 452 W/m2
08:09 57.9 °F 45.2 °F 30.20 in Calm   1 mph 62.5% 0.00 in 469 W/m2
08:14 58.8 °F 45.2 °F 30.19 in Calm   1 mph 60.6% 0.00 in 487 W/m2
08:19 59.6 °F 45.9 °F 30.19 in Calm   1 mph 60.5% 0.00 in 503 W/m2
08:24 60.4 °F 46.2 °F 30.19 in Calm   1 mph 59.4% 0.00 in 520 W/m2
08:29 61.2 °F 46.4 °F 30.19 in Calm   1 mph 58.3% 0.00 in 534 W/m2
08:34 61.7 °F 46.3 °F 30.20 in Calm   1 mph 56.9% 0.00 in 552 W/m2
08:39 62.3 °F 46.8 °F 30.20 in Calm     56.8% 0.00 in 568 W/m2
08:44 63.3 °F 47.8 °F 30.20 in Calm     56.9% 0.00 in 584 W/m2
08:49 64 °F 46.7 °F 30.20 in Calm   1 mph 53.3% 0.00 in 601 W/m2
08:54 64.6 °F 46.9 °F 30.20 in Calm   1 mph 52.6% 0.00 in 615 W/m2
08:59 65.1 °F 46.5 °F 30.19 in Calm   1 mph 51% 0.00 in 629 W/m2
09:04 65.8 °F 47.6 °F 30.19 in Calm   1 mph 51.8% 0.00 in 645 W/m2
09:09 66.6 °F 47.6 °F 30.19 in Calm     50.4% 0.00 in 659 W/m2
09:14 67.3 °F 48.1 °F 30.19 in Calm   1 mph 50% 0.00 in 675 W/m2
09:19 67.9 °F 47.6 °F 30.19 in Calm   1 mph 48.2% 0.00 in 691 W/m2
09:24 68.1 °F 47.5 °F 30.19 in Calm   1 mph 47.6% 0.00 in 705 W/m2
09:29 68.5 °F 49.1 °F 30.19 in Calm   1 mph 49.9% 0.00 in 719 W/m2
09:34 69.2 °F 48.9 °F 30.19 in Calm   1 mph 48.3% 0.00 in 729 W/m2
09:39 69.9 °F 48.8 °F 30.18 in Calm   1 mph 47.1% 0.00 in 744 W/m2
09:44 70.5 °F 48.5 °F 30.18 in Calm   1 mph 45.6% 0.00 in 756 W/m2
09:49 71.3 °F 49.4 °F 30.18 in NNW 0.1 mph 2 mph 45.9% 0.00 in 770 W/m2
09:54 72 °F 49.2 °F 30.18 in Calm   2 mph 44.5% 0.00 in 782 W/m2
09:59 72.5 °F 48.9 °F 30.18 in Calm   2 mph 43.3% 0.00 in 795 W/m2
10:04 72.6 °F 47.1 °F 30.18 in Calm   2 mph 40.2% 0.00 in 803 W/m2
10:09 72.8 °F 49.3 °F 30.18 in Calm     43.5% 0.00 in 819 W/m2
10:14 73.1 °F 49.2 °F 30.18 in NNW 0.1 mph 2 mph 42.8% 0.00 in 823 W/m2
10:19 73.6 °F 49 °F 30.18 in North 0.2 mph 2 mph 41.8% 0.00 in 835 W/m2
10:24 74.4 °F 49.1 °F 30.18 in North 0.2 mph 2 mph 40.9% 0.00 in 846 W/m2
10:29 74.7 °F 48.7 °F 30.18 in North 0.5 mph 3 mph 39.8% 0.00 in 858 W/m2
10:34 75.2 °F 48.1 °F 30.18 in Calm   3 mph 38.4% 0.00 in 868 W/m2
10:39 75.4 °F 47.9 °F 30.18 in Calm   1 mph 37.8% 0.00 in 877 W/m2
10:44 75.9 °F 47.9 °F 30.17 in NNE 0.2 mph 2 mph 37.3% 0.00 in 884 W/m2
10:49 75.9 °F 46.1 °F 30.17 in NNE 0.3 mph 2 mph 34.7% 0.00 in 891 W/m2
10:54 75.9 °F 46.9 °F 30.17 in NNE 0.9 mph 4 mph 35.8% 0.00 in 902 W/m2
10:59 75.8 °F 45.6 °F 30.17 in NE 0.5 mph 4 mph 34.1% 0.00 in 914 W/m2
11:04 75.5 °F 44.6 °F 30.17 in Calm   4 mph 33.3% 0.00 in 919 W/m2
11:09 75.5 °F 45.9 °F 30.17 in NE 0.4 mph 4 mph 34.9% 0.00 in 926 W/m2
11:14 75.8 °F 45.5 °F 30.17 in NE 1 mph 5 mph 34.1% 0.00 in 928 W/m2
11:19 76 °F 46.6 °F 30.17 in East 1.2 mph 5 mph 35.3% 0.00 in 944 W/m2
11:24 76.5 °F 46.4 °F 30.17 in East 1.4 mph 7 mph 34.5% 0.00 in 972 W/m2
11:29 76.5 °F 45.2 °F 30.17 in ENE 0.2 mph 7 mph 32.9% 0.00 in 1007 W/m2
11:34 76.6 °F 45.5 °F 30.16 in ENE 0.7 mph 7 mph 33.2% 0.00 in 1007 W/m2
11:39 76.6 °F 45.4 °F 30.16 in ENE 1.8 mph 7 mph 33.1% 0.00 in 1002 W/m2
11:44 77 °F 44.6 °F 30.16 in ENE 2.7 mph 7 mph 31.7% 0.00 in 984 W/m2
11:49 76.9 °F 44.6 °F 30.16 in ENE 0.9 mph 7 mph 31.7% 0.00 in 993 W/m2
11:54 76.9 °F 46.2 °F 30.16 in ENE 0.3 mph 7 mph 33.8% 0.00 in 1004 W/m2
11:59 77.2 °F 45.5 °F 30.16 in Calm   7 mph 32.4% 0.00 in 1055 W/m2
12:04 78 °F 45 °F 30.15 in Calm     31% 0.00 in 1069 W/m2
12:09 78.1 °F 45.7 °F 30.15 in ENE 0.4 mph 3 mph 31.9% 0.00 in 1069 W/m2
12:14 78.1 °F 46.3 °F 30.15 in ENE 0.1 mph 3 mph 32.5% 0.00 in 1065 W/m2
12:19 77.8 °F 43.8 °F 30.15 in ENE 0.1 mph 3 mph 30% 0.00 in 1106 W/m2
12:24 77.6 °F 47.3 °F 30.15 in Calm   3 mph 34.4% 0.00 in 1083 W/m2
12:29 77.7 °F 44.9 °F 30.15 in NW 0.8 mph 5 mph 31.3% 0.00 in 1083 W/m2
12:34 77.8 °F 44.1 °F 30.14 in Calm   5 mph 30.3% 0.00 in 1049 W/m2
12:39 78.1 °F 47 °F 30.14 in Calm   2 mph 33.3% 0.00 in 1095 W/m2
12:44 78.3 °F 44.8 °F 30.14 in North 0.4 mph 5 mph 30.5% 0.00 in 1109 W/m2
12:49 77.9 °F 43.9 °F 30.14 in Calm   5 mph 29.9% 0.00 in 156 W/m2
12:54 77.1 °F 43.5 °F 30.14 in NE 0.7 mph 6 mph 30.2% 0.00 in 773 W/m2
12:59 76.4 °F 42.9 °F 30.14 in ENE 1.3 mph 6 mph 30.2% 0.00 in 1048 W/m2
13:04 76.3 °F 43.9 °F 30.13 in Calm   6 mph 31.5% 0.00 in 1069 W/m2
13:09 76.4 °F 44.6 °F 30.13 in North 0.6 mph 4 mph 32.3% 0.00 in 1069 W/m2
13:14 76.8 °F 43.7 °F 30.13 in NE 2.4 mph 6 mph 30.8% 0.00 in 1020 W/m2
13:19 77.2 °F 42.2 °F 30.13 in NNE 0.5 mph 6 mph 28.7% 0.00 in 1065 W/m2
13:24 77.2 °F 40.4 °F 30.13 in NNE 0.3 mph 6 mph 26.7% 0.00 in 1030 W/m2
13:29 77.1 °F 42.1 °F 30.13 in Calm   6 mph 28.7% 0.00 in 1049 W/m2
13:34 77.2 °F 44.1 °F 30.13 in WNW 0.9 mph 6 mph 30.8% 0.00 in 1071 W/m2
13:39 77.5 °F 42.2 °F 30.12 in WNW 4.2 mph 10 mph 28.4% 0.00 in 1106 W/m2
13:44 77.9 °F 41.4 °F 30.12 in WNW 5.1 mph 11 mph 27.1% 0.00 in 1113 W/m2
13:49 78 °F 40.2 °F 30.12 in NW 0.5 mph 11 mph 25.9% 0.00 in 1132 W/m2
13:54 77.9 °F 41.3 °F 30.12 in NNE 0.9 mph 11 mph 27.1% 0.00 in 1130 W/m2
13:59 77.8 °F 39.4 °F 30.12 in East 1.7 mph 11 mph 25.2% 0.00 in 1099 W/m2
14:04 77.7 °F 41.5 °F 30.11 in NNE 1 mph 11 mph 27.4% 0.00 in 1097 W/m2
14:09 77.7 °F 41.9 °F 30.11 in North 1 mph 5 mph 27.9% 0.00 in 1113 W/m2
14:14 77.7 °F 41.4 °F 30.11 in WNW 0.4 mph 5 mph 27.4% 0.00 in 1086 W/m2
14:19 77.7 °F 41.7 °F 30.11 in WNW 1.8 mph 6 mph 27.7% 0.00 in 309 W/m2
14:24 77.5 °F 40.8 °F 30.11 in NW 0.1 mph 6 mph 26.9% 0.00 in 292 W/m2
14:29 77.2 °F 40.2 °F 30.11 in NE 0.8 mph 6 mph 26.5% 0.00 in 237 W/m2
14:34 76.9 °F 39.3 °F 30.11 in ENE 0.1 mph 6 mph 25.8% 0.00 in 281 W/m2
14:39 76.9 °F 40.5 °F 30.11 in North 0.8 mph 5 mph 27.1% 0.00 in 239 W/m2
14:44 76.7 °F 41.3 °F 30.11 in NNW 0.1 mph 5 mph 28.2% 0.00 in 202 W/m2
14:49 76.4 °F 40.1 °F 30.11 in Calm   5 mph 27.2% 0.00 in 214 W/m2
14:54 76 °F 39.5 °F 30.11 in Calm   5 mph 26.9% 0.00 in 234 W/m2
14:59 75.7 °F 40.8 °F 30.10 in NNW 0.1 mph 5 mph 28.5% 0.00 in 241 W/m2
15:04 75.6 °F 39.5 °F 30.10 in North 0.1 mph 5 mph 27.2% 0.00 in 236 W/m2
15:09 75.6 °F 39.8 °F 30.10 in North 0.3 mph 2 mph 27.5% 0.00 in 186 W/m2
15:14 75.5 °F 41.5 °F 30.10 in Calm   2 mph 29.5% 0.00 in 158 W/m2
15:19 75.5 °F 42.5 °F 30.10 in Calm   2 mph 30.7% 0.00 in 144 W/m2
15:24 75.5 °F 42.4 °F 30.10 in Calm   2 mph 30.6% 0.00 in 139 W/m2
15:29 75.3 °F 40 °F 30.10 in Calm   2 mph 28% 0.00 in 130 W/m2
15:34 75.2 °F 40.9 °F 30.10 in Calm   2 mph 29.2% 0.00 in 130 W/m2
15:39 75 °F 40.2 °F 30.09 in NE 0.3 mph 2 mph 28.5% 0.00 in 125 W/m2
15:44 74.7 °F 39.3 °F 30.09 in Calm   2 mph 27.9% 0.00 in 134 W/m2
15:49 74.4 °F 40.3 °F 30.09 in Calm   2 mph 29.2% 0.00 in 163 W/m2
15:54 74.3 °F 41.1 °F 30.09 in Calm   2 mph 30.3% 0.00 in 178 W/m2
15:59 74.2 °F 40.8 °F 30.09 in Calm   2 mph 30.1% 0.00 in 174 W/m2
16:00 74.1 °F 39.8 °F 30.09 in Calm   2 mph 29% 0.00 in 153 W/m2
16:09 74.2 °F 38.9 °F 30.09 in ENE 0.2 mph 4 mph 27.8% 0.00 in 139 W/m2
16:14 74.3 °F 40.3 °F 30.09 in Calm   4 mph 29.4% 0.00 in 132 W/m2
16:19 74.4 °F 40.1 °F 30.09 in Calm   4 mph 29% 0.00 in 151 W/m2
16:24 74.4 °F 40 °F 30.08 in ENE 0.2 mph 4 mph 28.9% 0.00 in 169 W/m2
16:29 74.5 °F 39.4 °F 30.08 in ENE 0.2 mph 4 mph 28.1% 0.00 in 185 W/m2
16:34 74.4 °F 39 °F 30.08 in Calm   4 mph 27.8% 0.00 in 188 W/m2
16:39 74.4 °F 39 °F 30.08 in Calm   1 mph 27.8% 0.00 in 207 W/m2
16:44 74.4 °F 38.6 °F 30.08 in Calm   1 mph 27.3% 0.00 in 200 W/m2
16:49 74.6 °F 40.4 °F 30.08 in Calm   1 mph 29.2% 0.00 in 178 W/m2
16:54 74.6 °F 40 °F 30.08 in Calm   1 mph 28.7% 0.00 in 142 W/m2
16:59 74.5 °F 41 °F 30.08 in ENE 0.2 mph 2 mph 29.9% 0.00 in 104 W/m2
17:04 74.1 °F 40.8 °F 30.08 in ENE 0.1 mph 2 mph 30% 0.00 in 91 W/m2
17:09 73.8 °F 41 °F 30.08 in Calm   2 mph 30.6% 0.00 in 91 W/m2
17:14 73.6 °F 41.3 °F 30.08 in Calm   2 mph 31.2% 0.00 in 86 W/m2
17:19 73.3 °F 41.4 °F 30.08 in Calm   2 mph 31.7% 0.00 in 83 W/m2
17:24 73 °F 41.1 °F 30.08 in Calm   2 mph 31.6% 0.00 in 67 W/m2
17:29 72.8 °F 41.1 °F 30.08 in Calm   2 mph 31.8% 0.00 in 62 W/m2
17:34 72.6 °F 41.7 °F 30.08 in Calm   2 mph 32.7% 0.00 in 60 W/m2
17:39 72.5 °F 41.6 °F 30.08 in Calm     32.7% 0.00 in 56 W/m2
17:44 72.4 °F 42.1 °F 30.08 in Calm     33.5% 0.00 in 56 W/m2
17:49 72.3 °F 42.8 °F 30.08 in Calm     34.5% 0.00 in 54 W/m2
17:54 72.2 °F 42.7 °F 30.08 in Calm     34.6% 0.00 in 58 W/m2
17:59 72 °F 42 °F 30.08 in Calm   1 mph 33.9% 0.00 in 60 W/m2
18:04 71.9 °F 41.8 °F 30.08 in Calm   1 mph 33.7% 0.00 in 60 W/m2
18:09 71.8 °F 42.1 °F 30.09 in Calm     34.2% 0.00 in 53 W/m2
18:14 71.7 °F 41.3 °F 30.09 in Calm     33.3% 0.00 in 44 W/m2
18:19 71.6 °F 41.2 °F 30.08 in Calm     33.2% 0.00 in 44 W/m2
18:24 71.5 °F 41.3 °F 30.08 in Calm     33.5% 0.00 in 46 W/m2
18:29 71.4 °F 41.7 °F 30.08 in Calm     34.1% 0.00 in 46 W/m2
18:34 71.3 °F 42 °F 30.08 in Calm     34.6% 0.00 in 42 W/m2
18:39 71.3 °F 42.1 °F 30.09 in Calm     34.8% 0.00 in 40 W/m2
18:44 71.2 °F 42.2 °F 30.09 in Calm     35% 0.00 in 39 W/m2
18:49 71.1 °F 42.4 °F 30.09 in ENE 0.5 mph 3 mph 35.4% 0.00 in 39 W/m2
18:54 71 °F 43.3 °F 30.09 in Calm   3 mph 36.8% 0.00 in 37 W/m2
18:59 70.8 °F 43.3 °F 30.09 in SSE 0.8 mph 5 mph 37% 0.00 in 33 W/m2
19:04 70.6 °F 42.1 °F 30.09 in West 1.7 mph 10 mph 35.6% 0.00 in 37 W/m2
19:09 70.6 °F 40.3 °F 30.10 in WNW 8.3 mph 20 mph 33.2% 0.00 in 39 W/m2
19:14 70.7 °F 39.8 °F 30.10 in WNW 5.4 mph 20 mph 32.5% 0.00 in 42 W/m2
19:19 70.8 °F 40.2 °F 30.09 in WSW 0.4 mph 20 mph 32.8% 0.00 in 44 W/m2
19:24 70.9 °F 40.7 °F 30.09 in WNW 0.5 mph 20 mph 33.4% 0.00 in 47 W/m2
19:29 70.8 °F 39.8 °F 30.09 in NW 0.2 mph 20 mph 32.3% 0.00 in 47 W/m2
19:34 70.8 °F 40.1 °F 30.09 in Calm   20 mph 32.7% 0.00 in 44 W/m2
19:39 70.8 °F 40 °F 30.10 in NW 0.4 mph 4 mph 32.6% 0.00 in 35 W/m2
19:44 70.8 °F 38.7 °F 30.10 in NW 0.3 mph 4 mph 31% 0.00 in 23 W/m2
19:49 70.8 °F 38.7 °F 30.10 in NW 0.1 mph 4 mph 31% 0.00 in 14 W/m2
19:54 70.7 °F 38.6 °F 30.10 in NW 0.1 mph 4 mph 31% 0.00 in 7 W/m2
19:59 70.6 °F 39.3 °F 30.10 in NW 0.2 mph 4 mph 32% 0.00 in 5 W/m2
20:00 70.5 °F 39.3 °F 30.10 in Calm   4 mph 32% 0.00 in 0 W/m2
20:09 70.1 °F 39.5 °F 30.10 in Calm     32.7% 0.00 in 0 W/m2
20:14 69.8 °F 39.6 °F 30.11 in Calm     33.1% 0.00 in 0 W/m2
20:19 69.5 °F 40.1 °F 30.11 in Calm     34.3% 0.00 in 0 W/m2
20:24 69.1 °F 40.3 °F 30.11 in Calm     35% 0.00 in 0 W/m2
20:29 68.6 °F 39.9 °F 30.11 in Calm     35% 0.00 in 0 W/m2
20:34 68.2 °F 40.4 °F 30.11 in Calm     36.2% 0.00 in 0 W/m2
20:39 67.6 °F 40.2 °F 30.11 in Calm     36.7% 0.00 in 0 W/m2
20:44 67 °F 40.2 °F 30.12 in Calm     37.5% 0.00 in 0 W/m2
20:49 66.5 °F 40 °F 30.12 in Calm     37.8% 0.00 in 0 W/m2
20:54 66.1 °F 39.8 °F 30.12 in Calm     38% 0.00 in 0 W/m2
20:59 65.8 °F 40.2 °F 30.12 in Calm     39.1% 0.00 in 0 W/m2
21:04 65.5 °F 41.1 °F 30.12 in Calm     40.9% 0.00 in 0 W/m2
21:09 65.2 °F 41.6 °F 30.13 in Calm   1 mph 42% 0.00 in 0 W/m2
21:14 65.1 °F 42.2 °F 30.13 in Calm   1 mph 43.3% 0.00 in 0 W/m2
21:19 64.9 °F 42.4 °F 30.13 in Calm   1 mph 44% 0.00 in 0 W/m2
21:24 64.7 °F 42.4 °F 30.13 in Calm   1 mph 44.2% 0.00 in 0 W/m2
21:29 64.5 °F 42.2 °F 30.13 in Calm   1 mph 44.1% 0.00 in 0 W/m2
21:34 64.4 °F 42.2 °F 30.14 in Calm   1 mph 44.2% 0.00 in 0 W/m2
21:39 64.4 °F 42.4 °F 30.14 in Calm     44.7% 0.00 in 0 W/m2
21:44 64.3 °F 42.8 °F 30.14 in Calm     45.5% 0.00 in 0 W/m2
21:49 64.2 °F 43.3 °F 30.14 in Calm     46.7% 0.00 in 0 W/m2
21:54 63.9 °F 43.7 °F 30.14 in Calm     47.6% 0.00 in 0 W/m2
21:59 63.6 °F 43.9 °F 30.14 in Calm     48.6% 0.00 in 0 W/m2
22:04 63.3 °F 44.1 °F 30.14 in Calm     49.6% 0.00 in 0 W/m2
22:09 63 °F 44.1 °F 30.14 in Calm     50% 0.00 in 0 W/m2
22:14 62.8 °F 43.8 °F 30.14 in Calm     49.8% 0.00 in 0 W/m2
22:19 62.7 °F 43.4 °F 30.14 in Calm     49.3% 0.00 in 0 W/m2
22:24 62.5 °F 43.3 °F 30.14 in Calm     49.3% 0.00 in 0 W/m2
22:29 62.4 °F 42.9 °F 30.14 in Calm     48.7% 0.00 in 0 W/m2
22:34 62.4 °F 42.8 °F 30.14 in Calm     48.6% 0.00 in 0 W/m2
22:39 62.3 °F 43 °F 30.14 in Calm     49.2% 0.00 in 0 W/m2
22:44 62.3 °F 43.2 °F 30.14 in Calm     49.6% 0.00 in 0 W/m2
22:49 62.3 °F 44 °F 30.15 in Calm     51% 0.00 in 0 W/m2
22:54 62.2 °F 43.9 °F 30.15 in Calm     51% 0.00 in 0 W/m2
22:59 62.1 °F 43.8 °F 30.14 in Calm     51% 0.00 in 0 W/m2
23:04 62 °F 43.7 °F 30.14 in Calm     51% 0.00 in 0 W/m2
23:09 61.9 °F 43.9 °F 30.15 in Calm     51.6% 0.00 in 0 W/m2
23:14 61.8 °F 44.1 °F 30.15 in Calm     52.1% 0.00 in 0 W/m2
23:19 61.7 °F 43.9 °F 30.15 in Calm     52% 0.00 in 0 W/m2
23:24 61.6 °F 44.2 °F 30.15 in Calm     52.7% 0.00 in 0 W/m2
23:29 61.5 °F 45 °F 30.15 in Calm     54.8% 0.00 in 0 W/m2
23:34 61.2 °F 45.4 °F 30.15 in Calm     56% 0.00 in 0 W/m2
23:39 60.9 °F 45.1 °F 30.15 in Calm     56% 0.00 in 0 W/m2
23:44 60.6 °F 45.1 °F 30.15 in Calm     56.5% 0.00 in 0 W/m2
23:49 60.5 °F 45.2 °F 30.14 in Calm     57% 0.00 in 0 W/m2
23:54 60.3 °F 45 °F 30.15 in Calm     57% 0.00 in 0 W/m2
23:59 60.2 °F 45.3 °F 30.15 in Calm     57.9% 0.00 in 0 W/m2
Hartford County Weather
Compliments of Weather Underground - 4 mb